sensor_id;sensor_type;location;lat;lon;timestamp;P1;durP1;ratioP1;P2;durP2;ratioP2
47103;SDS011;32853;52.164;5.400;2023-04-19T00:00:12;10.05;;;6.20;;
47103;SDS011;32853;52.164;5.400;2023-04-19T00:02:38;9.77;;;5.70;;
47103;SDS011;32853;52.164;5.400;2023-04-19T00:05:05;11.10;;;6.55;;
47103;SDS011;32853;52.164;5.400;2023-04-19T00:07:33;9.00;;;5.90;;
47103;SDS011;32853;52.164;5.400;2023-04-19T00:12:27;10.73;;;5.68;;
47103;SDS011;32853;52.164;5.400;2023-04-19T00:14:53;9.27;;;5.30;;
47103;SDS011;32853;52.164;5.400;2023-04-19T00:17:18;8.27;;;5.73;;
47103;SDS011;32853;52.164;5.400;2023-04-19T00:19:45;9.43;;;5.82;;
47103;SDS011;32853;52.164;5.400;2023-04-19T00:22:10;9.90;;;6.37;;
47103;SDS011;32853;52.164;5.400;2023-04-19T00:24:36;9.17;;;5.70;;
47103;SDS011;32853;52.164;5.400;2023-04-19T00:27:01;13.67;;;6.23;;
47103;SDS011;32853;52.164;5.400;2023-04-19T00:29:27;11.68;;;6.45;;
47103;SDS011;32853;52.164;5.400;2023-04-19T00:31:53;9.40;;;6.23;;
47103;SDS011;32853;52.164;5.400;2023-04-19T00:34:18;10.07;;;6.27;;
47103;SDS011;32853;52.164;5.400;2023-04-19T00:36:44;8.87;;;5.73;;
47103;SDS011;32853;52.164;5.400;2023-04-19T00:39:09;13.33;;;6.20;;
47103;SDS011;32853;52.164;5.400;2023-04-19T00:41:35;13.38;;;6.32;;
47103;SDS011;32853;52.164;5.400;2023-04-19T00:44:03;11.25;;;6.68;;
47103;SDS011;32853;52.164;5.400;2023-04-19T00:46:29;9.32;;;6.25;;
47103;SDS011;32853;52.164;5.400;2023-04-19T00:48:54;12.82;;;6.93;;
47103;SDS011;32853;52.164;5.400;2023-04-19T00:51:20;10.30;;;6.57;;
47103;SDS011;32853;52.164;5.400;2023-04-19T00:53:45;8.70;;;6.00;;
47103;SDS011;32853;52.164;5.400;2023-04-19T00:56:12;11.68;;;6.40;;
47103;SDS011;32853;52.164;5.400;2023-04-19T00:58:38;12.20;;;6.15;;
47103;SDS011;32853;52.164;5.400;2023-04-19T01:01:04;11.40;;;6.70;;
47103;SDS011;32853;52.164;5.400;2023-04-19T01:03:36;11.52;;;6.50;;
47103;SDS011;32853;52.164;5.400;2023-04-19T01:06:01;12.07;;;7.63;;
47103;SDS011;32853;52.164;5.400;2023-04-19T01:08:27;9.90;;;6.13;;
47103;SDS011;32853;52.164;5.400;2023-04-19T01:10:52;13.60;;;7.37;;
47103;SDS011;32853;52.164;5.400;2023-04-19T01:13:17;10.50;;;7.37;;
47103;SDS011;32853;52.164;5.400;2023-04-19T01:15:43;10.67;;;7.43;;
47103;SDS011;32853;52.164;5.400;2023-04-19T01:18:08;13.20;;;7.37;;
47103;SDS011;32853;52.164;5.400;2023-04-19T01:20:34;11.23;;;7.30;;
47103;SDS011;32853;52.164;5.400;2023-04-19T01:25:40;11.65;;;7.15;;
47103;SDS011;32853;52.164;5.400;2023-04-19T01:28:06;11.50;;;6.72;;
47103;SDS011;32853;52.164;5.400;2023-04-19T01:30:31;13.40;;;7.83;;
47103;SDS011;32853;52.164;5.400;2023-04-19T01:35:36;15.17;;;7.80;;
47103;SDS011;32853;52.164;5.400;2023-04-19T01:38:08;12.38;;;7.75;;
47103;SDS011;32853;52.164;5.400;2023-04-19T01:40:33;13.57;;;7.47;;
47103;SDS011;32853;52.164;5.400;2023-04-19T01:42:58;12.33;;;7.97;;
47103;SDS011;32853;52.164;5.400;2023-04-19T01:45:24;11.77;;;7.67;;
47103;SDS011;32853;52.164;5.400;2023-04-19T01:47:50;19.63;;;10.23;;
47103;SDS011;32853;52.164;5.400;2023-04-19T01:50:16;15.52;;;10.35;;
47103;SDS011;32853;52.164;5.400;2023-04-19T01:52:42;13.82;;;8.23;;
47103;SDS011;32853;52.164;5.400;2023-04-19T01:55:07;13.83;;;8.07;;
47103;SDS011;32853;52.164;5.400;2023-04-19T01:57:33;14.20;;;8.37;;
47103;SDS011;32853;52.164;5.400;2023-04-19T01:59:58;13.47;;;8.33;;
47103;SDS011;32853;52.164;5.400;2023-04-19T02:02:25;13.60;;;8.00;;
47103;SDS011;32853;52.164;5.400;2023-04-19T02:04:50;13.23;;;8.13;;
47103;SDS011;32853;52.164;5.400;2023-04-19T02:07:16;10.57;;;6.93;;
47103;SDS011;32853;52.164;5.400;2023-04-19T02:09:50;12.20;;;7.57;;
47103;SDS011;32853;52.164;5.400;2023-04-19T02:12:16;11.95;;;7.82;;
47103;SDS011;32853;52.164;5.400;2023-04-19T02:14:41;12.57;;;7.45;;
47103;SDS011;32853;52.164;5.400;2023-04-19T02:17:06;11.57;;;6.97;;
47103;SDS011;32853;52.164;5.400;2023-04-19T02:19:32;13.57;;;7.63;;
47103;SDS011;32853;52.164;5.400;2023-04-19T02:21:57;13.47;;;7.60;;
47103;SDS011;32853;52.164;5.400;2023-04-19T02:24:23;14.40;;;9.20;;
47103;SDS011;32853;52.164;5.400;2023-04-19T02:26:49;13.37;;;7.80;;
47103;SDS011;32853;52.164;5.400;2023-04-19T02:29:14;12.63;;;7.78;;
47103;SDS011;32853;52.164;5.400;2023-04-19T02:31:43;12.02;;;8.27;;
47103;SDS011;32853;52.164;5.400;2023-04-19T02:34:10;14.75;;;7.60;;
47103;SDS011;32853;52.164;5.400;2023-04-19T02:36:35;10.82;;;7.18;;
47103;SDS011;32853;52.164;5.400;2023-04-19T02:39:01;14.27;;;7.47;;
47103;SDS011;32853;52.164;5.400;2023-04-19T02:41:26;11.53;;;7.13;;
47103;SDS011;32853;52.164;5.400;2023-04-19T02:43:52;14.43;;;7.60;;
47103;SDS011;32853;52.164;5.400;2023-04-19T02:46:17;13.10;;;7.23;;
47103;SDS011;32853;52.164;5.400;2023-04-19T02:48:43;13.00;;;7.20;;
47103;SDS011;32853;52.164;5.400;2023-04-19T02:51:13;11.20;;;7.13;;
47103;SDS011;32853;52.164;5.400;2023-04-19T02:56:15;13.30;;;6.65;;
47103;SDS011;32853;52.164;5.400;2023-04-19T02:58:40;11.67;;;6.83;;
47103;SDS011;32853;52.164;5.400;2023-04-19T03:01:06;11.17;;;6.83;;
47103;SDS011;32853;52.164;5.400;2023-04-19T03:03:33;13.47;;;7.20;;
47103;SDS011;32853;52.164;5.400;2023-04-19T03:06:05;11.10;;;6.70;;
47103;SDS011;32853;52.164;5.400;2023-04-19T03:08:33;15.95;;;7.43;;
47103;SDS011;32853;52.164;5.400;2023-04-19T03:10:58;13.40;;;7.25;;
47103;SDS011;32853;52.164;5.400;2023-04-19T03:13:23;11.33;;;6.23;;
47103;SDS011;32853;52.164;5.400;2023-04-19T03:15:49;11.47;;;6.80;;
47103;SDS011;32853;52.164;5.400;2023-04-19T03:18:14;10.27;;;6.47;;
47103;SDS011;32853;52.164;5.400;2023-04-19T03:20:41;12.20;;;6.43;;
47103;SDS011;32853;52.164;5.400;2023-04-19T03:23:08;10.70;;;6.20;;
47103;SDS011;32853;52.164;5.400;2023-04-19T03:25:34;14.17;;;6.70;;
47103;SDS011;32853;52.164;5.400;2023-04-19T03:28:04;14.63;;;6.60;;
47103;SDS011;32853;52.164;5.400;2023-04-19T03:30:30;13.25;;;6.15;;
47103;SDS011;32853;52.164;5.400;2023-04-19T03:35:51;9.45;;;5.65;;
47103;SDS011;32853;52.164;5.400;2023-04-19T03:38:16;11.30;;;5.82;;
47103;SDS011;32853;52.164;5.400;2023-04-19T03:40:41;10.00;;;5.50;;
47103;SDS011;32853;52.164;5.400;2023-04-19T03:43:07;12.88;;;5.88;;
47103;SDS011;32853;52.164;5.400;2023-04-19T03:45:47;11.85;;;5.95;;
47103;SDS011;32853;52.164;5.400;2023-04-19T03:48:12;10.32;;;5.93;;
47103;SDS011;32853;52.164;5.400;2023-04-19T03:50:46;8.20;;;5.30;;
47103;SDS011;32853;52.164;5.400;2023-04-19T03:53:11;10.18;;;5.90;;
47103;SDS011;32853;52.164;5.400;2023-04-19T03:55:41;12.10;;;6.65;;
47103;SDS011;32853;52.164;5.400;2023-04-19T03:58:06;10.40;;;5.47;;
47103;SDS011;32853;52.164;5.400;2023-04-19T04:03:17;9.02;;;6.22;;
47103;SDS011;32853;52.164;5.400;2023-04-19T04:05:43;9.33;;;6.03;;
47103;SDS011;32853;52.164;5.400;2023-04-19T04:08:10;12.70;;;5.93;;
47103;SDS011;32853;52.164;5.400;2023-04-19T04:10:45;12.15;;;5.68;;
47103;SDS011;32853;52.164;5.400;2023-04-19T04:13:10;11.38;;;5.07;;
47103;SDS011;32853;52.164;5.400;2023-04-19T04:15:35;9.87;;;5.17;;
47103;SDS011;32853;52.164;5.400;2023-04-19T04:20:55;9.00;;;5.30;;
47103;SDS011;32853;52.164;5.400;2023-04-19T04:23:20;11.18;;;6.18;;
47103;SDS011;32853;52.164;5.400;2023-04-19T04:25:46;9.05;;;5.15;;
47103;SDS011;32853;52.164;5.400;2023-04-19T04:31:14;9.80;;;5.32;;
47103;SDS011;32853;52.164;5.400;2023-04-19T04:33:41;10.52;;;5.53;;
47103;SDS011;32853;52.164;5.400;2023-04-19T04:36:08;8.93;;;5.20;;
47103;SDS011;32853;52.164;5.400;2023-04-19T04:38:35;11.52;;;6.35;;
47103;SDS011;32853;52.164;5.400;2023-04-19T04:41:01;10.70;;;5.82;;
47103;SDS011;32853;52.164;5.400;2023-04-19T04:43:27;7.78;;;5.55;;
47103;SDS011;32853;52.164;5.400;2023-04-19T04:45:55;9.30;;;5.32;;
47103;SDS011;32853;52.164;5.400;2023-04-19T04:50:57;9.13;;;5.45;;
47103;SDS011;32853;52.164;5.400;2023-04-19T04:53:26;9.13;;;5.88;;
47103;SDS011;32853;52.164;5.400;2023-04-19T04:55:53;8.02;;;5.28;;
47103;SDS011;32853;52.164;5.400;2023-04-19T04:58:20;9.10;;;5.20;;
47103;SDS011;32853;52.164;5.400;2023-04-19T05:03:24;8.52;;;5.18;;
47103;SDS011;32853;52.164;5.400;2023-04-19T05:05:58;8.45;;;6.18;;
47103;SDS011;32853;52.164;5.400;2023-04-19T05:08:25;8.82;;;5.50;;
47103;SDS011;32853;52.164;5.400;2023-04-19T05:10:53;10.90;;;5.13;;
47103;SDS011;32853;52.164;5.400;2023-04-19T05:13:18;11.30;;;6.05;;
47103;SDS011;32853;52.164;5.400;2023-04-19T05:15:43;12.43;;;5.90;;
47103;SDS011;32853;52.164;5.400;2023-04-19T05:18:09;7.37;;;5.10;;
47103;SDS011;32853;52.164;5.400;2023-04-19T05:20:36;9.48;;;5.20;;
47103;SDS011;32853;52.164;5.400;2023-04-19T05:23:02;11.52;;;5.57;;
47103;SDS011;32853;52.164;5.400;2023-04-19T05:25:30;10.23;;;5.78;;
47103;SDS011;32853;52.164;5.400;2023-04-19T05:27:55;8.93;;;5.68;;
47103;SDS011;32853;52.164;5.400;2023-04-19T05:30:21;7.97;;;5.05;;
47103;SDS011;32853;52.164;5.400;2023-04-19T05:32:47;10.15;;;5.75;;
47103;SDS011;32853;52.164;5.400;2023-04-19T05:35:13;8.57;;;5.40;;
47103;SDS011;32853;52.164;5.400;2023-04-19T05:37:38;10.07;;;5.27;;
47103;SDS011;32853;52.164;5.400;2023-04-19T05:40:05;8.70;;;5.28;;
47103;SDS011;32853;52.164;5.400;2023-04-19T05:42:33;8.52;;;4.95;;
47103;SDS011;32853;52.164;5.400;2023-04-19T05:44:59;10.48;;;4.95;;
47103;SDS011;32853;52.164;5.400;2023-04-19T05:47:25;8.97;;;5.00;;
47103;SDS011;32853;52.164;5.400;2023-04-19T05:49:50;7.37;;;4.77;;
47103;SDS011;32853;52.164;5.400;2023-04-19T05:52:15;9.43;;;5.07;;
47103;SDS011;32853;52.164;5.400;2023-04-19T05:54:41;9.20;;;5.03;;
47103;SDS011;32853;52.164;5.400;2023-04-19T05:57:07;10.70;;;4.28;;
47103;SDS011;32853;52.164;5.400;2023-04-19T05:59:33;7.33;;;4.37;;
47103;SDS011;32853;52.164;5.400;2023-04-19T06:02:01;9.43;;;4.33;;
47103;SDS011;32853;52.164;5.400;2023-04-19T06:04:33;8.55;;;4.50;;
47103;SDS011;32853;52.164;5.400;2023-04-19T06:06:58;8.02;;;4.45;;
47103;SDS011;32853;52.164;5.400;2023-04-19T06:09:25;9.07;;;4.53;;
47103;SDS011;32853;52.164;5.400;2023-04-19T06:11:50;11.00;;;4.80;;
47103;SDS011;32853;52.164;5.400;2023-04-19T06:14:26;10.63;;;4.28;;
47103;SDS011;32853;52.164;5.400;2023-04-19T06:16:53;9.50;;;3.72;;
47103;SDS011;32853;52.164;5.400;2023-04-19T06:19:18;6.60;;;3.78;;
47103;SDS011;32853;52.164;5.400;2023-04-19T06:21:50;8.63;;;4.07;;
47103;SDS011;32853;52.164;5.400;2023-04-19T06:24:23;6.68;;;3.88;;
47103;SDS011;32853;52.164;5.400;2023-04-19T06:26:48;6.75;;;3.85;;
47103;SDS011;32853;52.164;5.400;2023-04-19T06:29:23;8.57;;;3.80;;
47103;SDS011;32853;52.164;5.400;2023-04-19T06:31:49;6.05;;;3.30;;
47103;SDS011;32853;52.164;5.400;2023-04-19T06:34:16;7.13;;;3.23;;
47103;SDS011;32853;52.164;5.400;2023-04-19T06:36:49;5.18;;;2.72;;
47103;SDS011;32853;52.164;5.400;2023-04-19T06:39:16;5.30;;;3.10;;
47103;SDS011;32853;52.164;5.400;2023-04-19T06:41:42;7.07;;;3.05;;
47103;SDS011;32853;52.164;5.400;2023-04-19T06:44:10;5.93;;;2.73;;
47103;SDS011;32853;52.164;5.400;2023-04-19T06:46:37;5.63;;;3.10;;
47103;SDS011;32853;52.164;5.400;2023-04-19T06:49:02;6.20;;;3.40;;
47103;SDS011;32853;52.164;5.400;2023-04-19T06:51:28;4.90;;;2.40;;
47103;SDS011;32853;52.164;5.400;2023-04-19T06:53:53;4.80;;;2.60;;
47103;SDS011;32853;52.164;5.400;2023-04-19T06:56:35;7.30;;;2.90;;
47103;SDS011;32853;52.164;5.400;2023-04-19T06:59:13;3.97;;;2.38;;
47103;SDS011;32853;52.164;5.400;2023-04-19T07:01:46;9.70;;;2.65;;
47103;SDS011;32853;52.164;5.400;2023-04-19T07:04:20;4.38;;;2.10;;
47103;SDS011;32853;52.164;5.400;2023-04-19T07:06:47;4.57;;;2.35;;
47103;SDS011;32853;52.164;5.400;2023-04-19T07:09:13;4.95;;;2.20;;
47103;SDS011;32853;52.164;5.400;2023-04-19T07:11:39;4.53;;;2.37;;
47103;SDS011;32853;52.164;5.400;2023-04-19T07:14:04;3.13;;;2.03;;
47103;SDS011;32853;52.164;5.400;2023-04-19T07:19:12;3.67;;;2.40;;
47103;SDS011;32853;52.164;5.400;2023-04-19T07:21:38;4.25;;;1.98;;
47103;SDS011;32853;52.164;5.400;2023-04-19T07:24:06;5.32;;;2.15;;
47103;SDS011;32853;52.164;5.400;2023-04-19T07:26:32;5.57;;;2.13;;
47103;SDS011;32853;52.164;5.400;2023-04-19T07:28:59;4.70;;;1.80;;
47103;SDS011;32853;52.164;5.400;2023-04-19T07:31:24;3.95;;;1.80;;
47103;SDS011;32853;52.164;5.400;2023-04-19T07:33:56;5.67;;;1.97;;
47103;SDS011;32853;52.164;5.400;2023-04-19T07:36:22;6.60;;;2.13;;
47103;SDS011;32853;52.164;5.400;2023-04-19T07:38:47;4.00;;;1.93;;
47103;SDS011;32853;52.164;5.400;2023-04-19T07:41:12;6.17;;;1.90;;
47103;SDS011;32853;52.164;5.400;2023-04-19T07:43:38;4.87;;;1.90;;
47103;SDS011;32853;52.164;5.400;2023-04-19T07:46:11;5.13;;;1.80;;
47103;SDS011;32853;52.164;5.400;2023-04-19T07:48:38;6.55;;;1.80;;
47103;SDS011;32853;52.164;5.400;2023-04-19T07:51:10;4.10;;;1.60;;
47103;SDS011;32853;52.164;5.400;2023-04-19T07:53:36;5.25;;;2.15;;
47103;SDS011;32853;52.164;5.400;2023-04-19T07:56:02;3.67;;;1.83;;
47103;SDS011;32853;52.164;5.400;2023-04-19T07:58:28;5.65;;;1.52;;
47103;SDS011;32853;52.164;5.400;2023-04-19T08:00:53;4.63;;;1.73;;
47103;SDS011;32853;52.164;5.400;2023-04-19T08:03:18;2.83;;;1.50;;
47103;SDS011;32853;52.164;5.400;2023-04-19T08:05:44;5.28;;;1.90;;
47103;SDS011;32853;52.164;5.400;2023-04-19T08:08:09;4.97;;;1.60;;
47103;SDS011;32853;52.164;5.400;2023-04-19T08:10:35;4.65;;;1.75;;
47103;SDS011;32853;52.164;5.400;2023-04-19T08:13:00;4.70;;;2.15;;
47103;SDS011;32853;52.164;5.400;2023-04-19T08:15:30;4.20;;;1.40;;
47103;SDS011;32853;52.164;5.400;2023-04-19T08:17:59;4.30;;;1.92;;
47103;SDS011;32853;52.164;5.400;2023-04-19T08:20:25;3.88;;;1.73;;
47103;SDS011;32853;52.164;5.400;2023-04-19T08:22:55;4.07;;;1.63;;
47103;SDS011;32853;52.164;5.400;2023-04-19T08:25:20;3.92;;;1.65;;
47103;SDS011;32853;52.164;5.400;2023-04-19T08:27:50;2.53;;;1.20;;
47103;SDS011;32853;52.164;5.400;2023-04-19T08:30:17;3.83;;;1.67;;
47103;SDS011;32853;52.164;5.400;2023-04-19T08:32:47;3.20;;;1.20;;
47103;SDS011;32853;52.164;5.400;2023-04-19T08:35:17;3.40;;;1.50;;
47103;SDS011;32853;52.164;5.400;2023-04-19T08:37:42;2.60;;;1.10;;
47103;SDS011;32853;52.164;5.400;2023-04-19T08:40:08;3.60;;;1.45;;
47103;SDS011;32853;52.164;5.400;2023-04-19T08:42:36;3.63;;;1.30;;
47103;SDS011;32853;52.164;5.400;2023-04-19T08:45:04;2.10;;;1.15;;
47103;SDS011;32853;52.164;5.400;2023-04-19T08:47:31;2.42;;;1.10;;
47103;SDS011;32853;52.164;5.400;2023-04-19T08:50:09;3.67;;;1.20;;
47103;SDS011;32853;52.164;5.400;2023-04-19T08:52:36;3.28;;;1.08;;
47103;SDS011;32853;52.164;5.400;2023-04-19T08:55:12;2.30;;;1.00;;
47103;SDS011;32853;52.164;5.400;2023-04-19T08:57:47;4.07;;;1.00;;
47103;SDS011;32853;52.164;5.400;2023-04-19T09:00:13;1.25;;;0.70;;
47103;SDS011;32853;52.164;5.400;2023-04-19T09:02:48;2.80;;;0.90;;
47103;SDS011;32853;52.164;5.400;2023-04-19T09:05:15;3.47;;;0.70;;
47103;SDS011;32853;52.164;5.400;2023-04-19T09:07:41;2.03;;;0.75;;
47103;SDS011;32853;52.164;5.400;2023-04-19T09:10:18;1.50;;;0.60;;
47103;SDS011;32853;52.164;5.400;2023-04-19T09:13:03;2.67;;;0.80;;
47103;SDS011;32853;52.164;5.400;2023-04-19T09:15:40;1.40;;;0.65;;
47103;SDS011;32853;52.164;5.400;2023-04-19T09:18:08;3.08;;;0.70;;
47103;SDS011;32853;52.164;5.400;2023-04-19T09:20:37;1.98;;;0.70;;
47103;SDS011;32853;52.164;5.400;2023-04-19T09:23:05;3.10;;;0.90;;
47103;SDS011;32853;52.164;5.400;2023-04-19T09:25:55;1.50;;;0.67;;
47103;SDS011;32853;52.164;5.400;2023-04-19T09:28:24;1.25;;;0.70;;
47103;SDS011;32853;52.164;5.400;2023-04-19T09:30:50;2.47;;;0.93;;
47103;SDS011;32853;52.164;5.400;2023-04-19T09:33:49;8.00;;;1.00;;
47103;SDS011;32853;52.164;5.400;2023-04-19T09:36:10;3.58;;;0.80;;
47103;SDS011;32853;52.164;5.400;2023-04-19T09:38:50;2.45;;;0.90;;
47103;SDS011;32853;52.164;5.400;2023-04-19T09:43:44;6.05;;;1.20;;
47103;SDS011;32853;52.164;5.400;2023-04-19T09:49:23;4.25;;;1.45;;
47103;SDS011;32853;52.164;5.400;2023-04-19T09:54:45;3.33;;;1.30;;
47103;SDS011;32853;52.164;5.400;2023-04-19T10:00:27;3.60;;;0.70;;
47103;SDS011;32853;52.164;5.400;2023-04-19T10:03:06;2.55;;;0.75;;
47103;SDS011;32853;52.164;5.400;2023-04-19T10:05:35;2.15;;;0.77;;
47103;SDS011;32853;52.164;5.400;2023-04-19T10:08:03;1.00;;;0.50;;
47103;SDS011;32853;52.164;5.400;2023-04-19T10:10:34;1.33;;;0.70;;
47103;SDS011;32853;52.164;5.400;2023-04-19T10:13:01;1.95;;;0.77;;
47103;SDS011;32853;52.164;5.400;2023-04-19T10:15:29;1.77;;;0.80;;
47103;SDS011;32853;52.164;5.400;2023-04-19T10:17:56;4.32;;;0.88;;
47103;SDS011;32853;52.164;5.400;2023-04-19T10:20:22;3.53;;;1.40;;
47103;SDS011;32853;52.164;5.400;2023-04-19T10:22:54;2.00;;;0.90;;
47103;SDS011;32853;52.164;5.400;2023-04-19T10:25:22;2.50;;;0.70;;
47103;SDS011;32853;52.164;5.400;2023-04-19T10:27:53;1.58;;;0.80;;
47103;SDS011;32853;52.164;5.400;2023-04-19T10:30:19;1.37;;;0.50;;
47103;SDS011;32853;52.164;5.400;2023-04-19T10:32:50;2.28;;;1.23;;
47103;SDS011;32853;52.164;5.400;2023-04-19T10:38:14;1.48;;;0.63;;
47103;SDS011;32853;52.164;5.400;2023-04-19T10:41:00;2.03;;;0.60;;
47103;SDS011;32853;52.164;5.400;2023-04-19T10:43:29;3.00;;;0.75;;
47103;SDS011;32853;52.164;5.400;2023-04-19T10:46:01;5.03;;;0.80;;
47103;SDS011;32853;52.164;5.400;2023-04-19T10:48:32;1.90;;;1.08;;
47103;SDS011;32853;52.164;5.400;2023-04-19T10:53:57;2.10;;;0.70;;
47103;SDS011;32853;52.164;5.400;2023-04-19T11:01:38;1.55;;;0.60;;
47103;SDS011;32853;52.164;5.400;2023-04-19T11:04:04;1.60;;;1.10;;
47103;SDS011;32853;52.164;5.400;2023-04-19T11:06:30;3.22;;;1.00;;
47103;SDS011;32853;52.164;5.400;2023-04-19T11:08:57;4.05;;;1.23;;
47103;SDS011;32853;52.164;5.400;2023-04-19T11:11:23;2.70;;;0.80;;
47103;SDS011;32853;52.164;5.400;2023-04-19T11:13:49;2.05;;;0.82;;
47103;SDS011;32853;52.164;5.400;2023-04-19T11:16:15;3.77;;;0.70;;
47103;SDS011;32853;52.164;5.400;2023-04-19T11:18:40;1.90;;;0.60;;
47103;SDS011;32853;52.164;5.400;2023-04-19T11:21:13;1.67;;;0.90;;
47103;SDS011;32853;52.164;5.400;2023-04-19T11:23:39;1.50;;;0.80;;
47103;SDS011;32853;52.164;5.400;2023-04-19T11:26:05;1.50;;;1.00;;
47103;SDS011;32853;52.164;5.400;2023-04-19T11:28:34;2.95;;;0.98;;
47103;SDS011;32853;52.164;5.400;2023-04-19T11:30:59;5.10;;;1.30;;
47103;SDS011;32853;52.164;5.400;2023-04-19T11:33:36;4.72;;;1.40;;
47103;SDS011;32853;52.164;5.400;2023-04-19T11:36:10;4.30;;;0.80;;
47103;SDS011;32853;52.164;5.400;2023-04-19T11:38:36;7.25;;;0.98;;
47103;SDS011;32853;52.164;5.400;2023-04-19T11:41:20;4.85;;;1.08;;
47103;SDS011;32853;52.164;5.400;2023-04-19T11:43:45;2.80;;;0.80;;
47103;SDS011;32853;52.164;5.400;2023-04-19T11:46:11;1.88;;;0.80;;
47103;SDS011;32853;52.164;5.400;2023-04-19T11:48:38;3.67;;;1.23;;
47103;SDS011;32853;52.164;5.400;2023-04-19T11:51:14;4.20;;;1.10;;
47103;SDS011;32853;52.164;5.400;2023-04-19T11:53:40;6.63;;;1.00;;
47103;SDS011;32853;52.164;5.400;2023-04-19T11:56:09;2.00;;;0.80;;
47103;SDS011;32853;52.164;5.400;2023-04-19T11:58:46;4.40;;;1.10;;
47103;SDS011;32853;52.164;5.400;2023-04-19T12:01:14;5.30;;;1.20;;
47103;SDS011;32853;52.164;5.400;2023-04-19T12:06:10;3.63;;;1.33;;
47103;SDS011;32853;52.164;5.400;2023-04-19T12:08:49;2.13;;;1.10;;
47103;SDS011;32853;52.164;5.400;2023-04-19T12:11:27;5.50;;;1.50;;
47103;SDS011;32853;52.164;5.400;2023-04-19T12:14:22;2.90;;;1.08;;
47103;SDS011;32853;52.164;5.400;2023-04-19T12:17:07;4.93;;;1.60;;
47103;SDS011;32853;52.164;5.400;2023-04-19T12:19:45;4.72;;;1.20;;
47103;SDS011;32853;52.164;5.400;2023-04-19T12:22:15;3.72;;;1.50;;
47103;SDS011;32853;52.164;5.400;2023-04-19T12:24:44;3.08;;;1.30;;
47103;SDS011;32853;52.164;5.400;2023-04-19T12:27:09;2.63;;;1.23;;
47103;SDS011;32853;52.164;5.400;2023-04-19T12:29:35;6.00;;;1.10;;
47103;SDS011;32853;52.164;5.400;2023-04-19T12:32:01;2.95;;;1.38;;
47103;SDS011;32853;52.164;5.400;2023-04-19T12:34:30;2.57;;;1.20;;
47103;SDS011;32853;52.164;5.400;2023-04-19T12:36:57;2.78;;;1.60;;
47103;SDS011;32853;52.164;5.400;2023-04-19T12:39:24;2.55;;;1.50;;
47103;SDS011;32853;52.164;5.400;2023-04-19T12:41:53;2.47;;;1.30;;
47103;SDS011;32853;52.164;5.400;2023-04-19T12:44:18;3.97;;;1.30;;
47103;SDS011;32853;52.164;5.400;2023-04-19T12:46:44;4.03;;;1.17;;
47103;SDS011;32853;52.164;5.400;2023-04-19T12:49:09;2.73;;;1.23;;
47103;SDS011;32853;52.164;5.400;2023-04-19T12:51:35;3.00;;;1.30;;
47103;SDS011;32853;52.164;5.400;2023-04-19T12:54:00;3.67;;;1.23;;
47103;SDS011;32853;52.164;5.400;2023-04-19T12:56:27;1.92;;;1.05;;
47103;SDS011;32853;52.164;5.400;2023-04-19T12:58:58;2.15;;;1.10;;
47103;SDS011;32853;52.164;5.400;2023-04-19T13:01:23;3.95;;;1.27;;
47103;SDS011;32853;52.164;5.400;2023-04-19T13:03:50;5.93;;;1.20;;
47103;SDS011;32853;52.164;5.400;2023-04-19T13:06:45;6.13;;;1.33;;
47103;SDS011;32853;52.164;5.400;2023-04-19T13:09:10;2.92;;;1.30;;
47103;SDS011;32853;52.164;5.400;2023-04-19T13:11:36;3.57;;;1.10;;
47103;SDS011;32853;52.164;5.400;2023-04-19T13:19:04;2.15;;;1.20;;
47103;SDS011;32853;52.164;5.400;2023-04-19T13:21:29;2.67;;;1.13;;
47103;SDS011;32853;52.164;5.400;2023-04-19T13:26:23;2.50;;;1.38;;
47103;SDS011;32853;52.164;5.400;2023-04-19T13:28:49;5.13;;;1.40;;
47103;SDS011;32853;52.164;5.400;2023-04-19T13:31:14;3.72;;;1.05;;
47103;SDS011;32853;52.164;5.400;2023-04-19T13:33:40;3.57;;;1.20;;
47103;SDS011;32853;52.164;5.400;2023-04-19T13:36:05;3.33;;;1.23;;
47103;SDS011;32853;52.164;5.400;2023-04-19T13:38:31;2.03;;;1.10;;
47103;SDS011;32853;52.164;5.400;2023-04-19T13:40:57;3.07;;;1.07;;
47103;SDS011;32853;52.164;5.400;2023-04-19T13:43:23;2.50;;;1.17;;
47103;SDS011;32853;52.164;5.400;2023-04-19T13:45:48;2.37;;;1.07;;
47103;SDS011;32853;52.164;5.400;2023-04-19T13:48:14;2.30;;;1.10;;
47103;SDS011;32853;52.164;5.400;2023-04-19T13:50:48;2.60;;;1.20;;
47103;SDS011;32853;52.164;5.400;2023-04-19T13:56:04;3.97;;;1.20;;
47103;SDS011;32853;52.164;5.400;2023-04-19T13:58:33;3.35;;;1.25;;
47103;SDS011;32853;52.164;5.400;2023-04-19T14:01:07;3.07;;;1.03;;
47103;SDS011;32853;52.164;5.400;2023-04-19T14:03:33;1.80;;;0.98;;
47103;SDS011;32853;52.164;5.400;2023-04-19T14:06:01;2.77;;;1.33;;
47103;SDS011;32853;52.164;5.400;2023-04-19T14:08:37;4.15;;;0.90;;
47103;SDS011;32853;52.164;5.400;2023-04-19T14:11:04;3.78;;;1.13;;
47103;SDS011;32853;52.164;5.400;2023-04-19T14:16:11;2.85;;;1.00;;
47103;SDS011;32853;52.164;5.400;2023-04-19T14:18:54;3.10;;;1.00;;
47103;SDS011;32853;52.164;5.400;2023-04-19T14:21:19;1.80;;;1.00;;
47103;SDS011;32853;52.164;5.400;2023-04-19T14:26:33;2.63;;;1.00;;
47103;SDS011;32853;52.164;5.400;2023-04-19T14:29:03;2.03;;;0.93;;
47103;SDS011;32853;52.164;5.400;2023-04-19T14:31:32;2.40;;;1.08;;
47103;SDS011;32853;52.164;5.400;2023-04-19T14:33:58;4.88;;;1.10;;
47103;SDS011;32853;52.164;5.400;2023-04-19T14:36:23;2.47;;;0.80;;
47103;SDS011;32853;52.164;5.400;2023-04-19T14:38:50;2.23;;;1.00;;
47103;SDS011;32853;52.164;5.400;2023-04-19T14:41:15;1.92;;;0.90;;
47103;SDS011;32853;52.164;5.400;2023-04-19T14:43:41;3.28;;;1.15;;
47103;SDS011;32853;52.164;5.400;2023-04-19T14:46:06;3.60;;;1.10;;
47103;SDS011;32853;52.164;5.400;2023-04-19T14:48:34;4.20;;;1.00;;
47103;SDS011;32853;52.164;5.400;2023-04-19T14:51:08;2.38;;;1.00;;
47103;SDS011;32853;52.164;5.400;2023-04-19T14:53:37;4.05;;;1.23;;
47103;SDS011;32853;52.164;5.400;2023-04-19T14:56:05;3.83;;;1.00;;
47103;SDS011;32853;52.164;5.400;2023-04-19T14:58:31;3.28;;;1.10;;
47103;SDS011;32853;52.164;5.400;2023-04-19T15:00:57;4.78;;;1.30;;
47103;SDS011;32853;52.164;5.400;2023-04-19T15:06:55;3.53;;;1.30;;
47103;SDS011;32853;52.164;5.400;2023-04-19T15:10:01;1.58;;;0.90;;
47103;SDS011;32853;52.164;5.400;2023-04-19T15:12:27;7.03;;;1.33;;
47103;SDS011;32853;52.164;5.400;2023-04-19T15:15:00;5.35;;;1.20;;
47103;SDS011;32853;52.164;5.400;2023-04-19T15:21:28;12.57;;;1.58;;
47103;SDS011;32853;52.164;5.400;2023-04-19T15:23:54;7.53;;;1.50;;
47103;SDS011;32853;52.164;5.400;2023-04-19T15:29:35;3.92;;;1.95;;
47103;SDS011;32853;52.164;5.400;2023-04-19T15:32:40;3.38;;;2.08;;
47103;SDS011;32853;52.164;5.400;2023-04-19T15:44:58;3.42;;;2.00;;
47103;SDS011;32853;52.164;5.400;2023-04-19T15:47:44;4.25;;;2.03;;
47103;SDS011;32853;52.164;5.400;2023-04-19T15:50:09;3.17;;;1.90;;
47103;SDS011;32853;52.164;5.400;2023-04-19T15:52:35;3.97;;;2.50;;
47103;SDS011;32853;52.164;5.400;2023-04-19T15:58:12;4.68;;;2.25;;
47103;SDS011;32853;52.164;5.400;2023-04-19T16:00:37;3.17;;;2.00;;
47103;SDS011;32853;52.164;5.400;2023-04-19T16:03:03;4.15;;;2.00;;
47103;SDS011;32853;52.164;5.400;2023-04-19T16:05:31;4.50;;;2.63;;
47103;SDS011;32853;52.164;5.400;2023-04-19T16:10:47;6.00;;;2.08;;
47103;SDS011;32853;52.164;5.400;2023-04-19T16:13:13;3.43;;;2.17;;
47103;SDS011;32853;52.164;5.400;2023-04-19T16:15:48;4.40;;;2.10;;
47103;SDS011;32853;52.164;5.400;2023-04-19T16:18:17;3.08;;;1.85;;
47103;SDS011;32853;52.164;5.400;2023-04-19T16:20:42;4.00;;;1.95;;
47103;SDS011;32853;52.164;5.400;2023-04-19T16:23:08;4.87;;;2.07;;
47103;SDS011;32853;52.164;5.400;2023-04-19T16:25:34;5.03;;;2.00;;